createdAt,value
2022-09-26T00:03:34.929Z,12.63
2022-09-26T00:07:37.021Z,12.61
2022-09-26T00:11:38.797Z,12.62
2022-09-26T00:15:40.450Z,12.61
2022-09-26T00:19:41.940Z,12.61
2022-09-26T00:23:43.569Z,12.61
2022-09-26T00:27:45.410Z,12.61
2022-09-26T00:31:48.922Z,12.59
2022-09-26T00:35:51.952Z,12.58
2022-09-26T00:39:53.545Z,12.55
2022-09-26T00:43:57.345Z,12.56
2022-09-26T00:48:03.653Z,12.56
2022-09-26T00:52:23.840Z,12.55
2022-09-26T00:56:30.560Z,12.54
2022-09-26T01:00:32.766Z,12.54
2022-09-26T01:04:38.238Z,12.55
2022-09-26T01:08:44.312Z,12.56
2022-09-26T01:12:46.336Z,12.59
2022-09-26T01:16:51.161Z,12.56
2022-09-26T01:21:07.747Z,12.56
2022-09-26T01:25:15.375Z,12.55
2022-09-26T01:29:39.152Z,12.52
2022-09-26T01:33:49.586Z,12.51
2022-09-26T01:38:20.178Z,12.48
2022-09-26T01:42:27.901Z,12.41
2022-09-26T01:46:57.116Z,12.38
2022-09-26T01:51:05.120Z,12.36
2022-09-26T01:55:12.259Z,12.34
2022-09-26T01:59:22.824Z,12.31
2022-09-26T02:03:31.555Z,12.26
2022-09-26T02:07:46.021Z,12.19
2022-09-26T02:11:50.673Z,12.13
2022-09-26T02:15:58.613Z,12.11
2022-09-26T02:20:05.730Z,12.11
2022-09-26T02:24:07.541Z,12.08
2022-09-26T02:28:10.311Z,12.12
2022-09-26T02:32:16.408Z,12.15
2022-09-26T02:36:20.629Z,12.19
2022-09-26T02:40:28.343Z,12.19
2022-09-26T02:45:11.925Z,12.15
2022-09-26T02:49:38.807Z,12.13
2022-09-26T02:54:11.370Z,12.08
2022-09-26T02:58:59.675Z,12.04
2022-09-26T03:03:13.611Z,12.03
2022-09-26T03:07:21.552Z,11.98
2022-09-26T03:11:25.693Z,11.96
2022-09-26T03:15:29.738Z,11.88
2022-09-26T03:20:01.727Z,11.82
2022-09-26T03:24:05.196Z,11.77
2022-09-26T03:28:07.533Z,11.74
2022-09-26T03:32:10.166Z,11.70
2022-09-26T03:36:12.470Z,11.67
2022-09-26T03:40:14.352Z,11.64
2022-09-26T03:44:45.211Z,11.59
2022-09-26T03:48:46.749Z,11.57
2022-09-26T03:52:49.400Z,11.54
2022-09-26T03:56:50.983Z,11.49
2022-09-26T04:00:52.786Z,11.46
2022-09-26T04:04:54.526Z,11.44
2022-09-26T04:08:56.324Z,11.41
2022-09-26T04:12:58.008Z,11.42
2022-09-26T04:17:00.212Z,11.38
2022-09-26T04:21:10.140Z,11.39
2022-09-26T04:25:12.595Z,11.35
2022-09-26T04:29:16.005Z,11.33
2022-09-26T04:33:29.441Z,11.27
2022-09-26T04:37:42.139Z,11.24
2022-09-26T04:41:43.970Z,11.21
2022-09-26T04:45:45.804Z,11.19
2022-09-26T04:49:48.309Z,11.12
2022-09-26T04:53:50.457Z,11.09
2022-09-26T04:57:55.534Z,11.08
2022-09-26T05:01:57.499Z,11.05
2022-09-26T05:06:08.967Z,11.02
2022-09-26T05:10:11.163Z,11.02
2022-09-26T05:14:20.753Z,11.01
2022-09-26T05:18:24.910Z,11.02
2022-09-26T05:22:30.168Z,10.99
2022-09-26T05:26:44.159Z,10.98
2022-09-26T05:30:45.767Z,10.94
2022-09-26T05:34:48.858Z,10.93
2022-09-26T05:38:53.858Z,10.93
2022-09-26T05:43:01.217Z,10.91
2022-09-26T05:47:02.836Z,10.87
2022-09-26T05:51:09.833Z,10.88
2022-09-26T05:55:13.984Z,10.93
2022-09-26T05:59:34.585Z,10.98
2022-09-26T06:04:10.242Z,11.02
2022-09-26T06:08:27.851Z,11.05
2022-09-26T06:12:50.713Z,11.08
2022-09-26T06:16:52.854Z,11.13
2022-09-26T06:20:54.571Z,11.19
2022-09-26T06:24:56.501Z,11.26
2022-09-26T06:29:00.649Z,11.30
2022-09-26T06:33:04.165Z,11.36
2022-09-26T06:37:35.102Z,11.38
2022-09-26T06:41:36.738Z,11.39
2022-09-26T06:45:51.809Z,11.44
2022-09-26T06:50:19.671Z,11.53
2022-09-26T06:54:27.181Z,11.57
2022-09-26T06:58:28.897Z,11.63
2022-09-26T07:02:53.039Z,11.64
2022-09-26T07:07:15.456Z,11.69
2022-09-26T07:15:40.073Z,11.75
2022-09-26T07:20:00.681Z,11.81
2022-09-26T07:24:20.995Z,11.87
2022-09-26T07:28:22.596Z,11.90
2022-09-26T07:32:25.818Z,11.97
2022-09-26T07:36:33.077Z,12.03
2022-09-26T07:40:34.646Z,12.15
2022-09-26T07:49:16.798Z,12.30
2022-09-26T07:53:50.592Z,12.41
2022-09-26T07:58:25.978Z,12.55
2022-09-26T08:02:52.738Z,12.73
2022-09-26T08:06:56.514Z,12.92
2022-09-26T08:11:03.392Z,13.03
2022-09-26T08:15:21.263Z,13.06
2022-09-26T08:19:25.590Z,13.09
2022-09-26T08:23:29.329Z,13.19
2022-09-26T08:27:51.595Z,13.32
2022-09-26T08:31:54.638Z,13.47
2022-09-26T08:36:03.507Z,13.54
2022-09-26T08:40:32.319Z,13.72
2022-09-26T08:45:02.317Z,14.06
2022-09-26T08:49:52.754Z,14.26
2022-09-26T08:54:01.240Z,14.35
2022-09-26T08:58:34.847Z,14.31
2022-09-26T09:03:00.168Z,14.23
2022-09-26T09:07:07.375Z,14.17
2022-09-26T09:11:23.638Z,14.20
2022-09-26T09:16:00.757Z,14.34
2022-09-26T09:20:53.195Z,14.53
2022-09-26T09:25:24.782Z,14.60
2022-09-26T09:29:57.270Z,14.48
2022-09-26T09:34:29.398Z,14.54
2022-09-26T09:39:11.467Z,14.67
2022-09-26T09:43:57.386Z,14.82
2022-09-26T09:48:00.561Z,14.94
2022-09-26T09:52:24.522Z,15.16
2022-09-26T09:56:52.080Z,15.48
2022-09-26T10:01:13.572Z,15.84
2022-09-26T10:05:30.039Z,16.06
2022-09-26T10:09:41.910Z,16.17
2022-09-26T10:14:07.432Z,16.29
2022-09-26T10:18:29.508Z,16.30
2022-09-26T10:22:47.183Z,16.54
2022-09-26T10:26:58.072Z,16.72
2022-09-26T10:31:41.406Z,16.90
2022-09-26T10:35:54.488Z,16.96
2022-09-26T10:40:23.091Z,17.02
2022-09-26T10:44:34.905Z,17.24
2022-09-26T10:48:48.798Z,17.15
2022-09-26T10:53:11.291Z,17.00
2022-09-26T10:57:28.340Z,16.77
2022-09-26T11:01:38.523Z,16.52
2022-09-26T11:06:00.135Z,16.44
2022-09-26T11:10:17.258Z,16.40
2022-09-26T11:14:45.978Z,16.33
2022-09-26T11:18:52.380Z,16.33
2022-09-26T11:23:14.321Z,16.29
2022-09-26T11:32:00.280Z,16.57
2022-09-26T11:36:36.191Z,16.62
2022-09-26T11:41:07.834Z,16.69
2022-09-26T11:45:23.583Z,16.90
2022-09-26T11:50:13.021Z,17.02
2022-09-26T11:55:15.249Z,17.21
2022-09-26T11:59:51.605Z,17.49
2022-09-26T12:04:13.213Z,17.62
2022-09-26T12:08:52.923Z,17.70
2022-09-26T12:13:21.860Z,17.79
2022-09-26T12:17:48.791Z,17.55
2022-09-26T12:22:29.783Z,17.43
2022-09-26T12:26:53.657Z,17.55
2022-09-26T12:31:14.010Z,17.77
2022-09-26T12:35:36.467Z,17.91
2022-09-26T12:40:06.951Z,17.91
2022-09-26T12:44:34.330Z,17.94
2022-09-26T12:48:47.399Z,17.79
2022-09-26T12:53:40.323Z,17.74
2022-09-26T12:58:07.593Z,17.58
2022-09-26T13:02:27.528Z,17.55
2022-09-26T13:07:18.431Z,17.46
2022-09-26T13:11:55.504Z,17.03
2022-09-26T13:16:28.246Z,16.54
2022-09-26T13:20:55.248Z,16.34
2022-09-26T13:25:15.151Z,16.13
2022-09-26T13:29:25.184Z,15.99
2022-09-26T13:33:46.565Z,16.07
2022-09-26T13:38:16.248Z,16.06
2022-09-26T13:43:05.084Z,15.98
2022-09-26T13:47:15.904Z,15.96
2022-09-26T13:51:39.375Z,16.04
2022-09-26T13:55:47.970Z,16.13
2022-09-26T13:59:54.475Z,16.37
2022-09-26T14:04:35.181Z,16.57
2022-09-26T14:08:55.952Z,16.54
2022-09-26T14:13:06.846Z,16.48
2022-09-26T14:17:43.063Z,16.41
2022-09-26T14:22:03.450Z,16.25
2022-09-26T14:26:08.127Z,16.23
2022-09-26T14:30:14.018Z,16.14
2022-09-26T14:34:23.851Z,16.22
2022-09-26T14:38:27.794Z,16.32
2022-09-26T14:42:33.117Z,16.47
2022-09-26T14:46:41.587Z,16.62
2022-09-26T14:51:02.611Z,16.65
2022-09-26T14:55:08.723Z,16.62
2022-09-26T14:59:38.539Z,16.62
2022-09-26T15:03:51.077Z,16.69
2022-09-26T15:08:04.574Z,16.81
2022-09-26T15:12:25.310Z,16.88
2022-09-26T15:16:48.428Z,16.99
2022-09-26T15:21:15.410Z,16.99
2022-09-26T15:25:23.347Z,16.99
2022-09-26T15:29:29.544Z,16.90
2022-09-26T15:33:39.213Z,16.81
2022-09-26T15:37:49.512Z,16.69
2022-09-26T15:42:11.177Z,16.59
2022-09-26T15:46:26.665Z,16.45
2022-09-26T15:51:07.094Z,16.40
2022-09-26T15:55:19.987Z,16.32
2022-09-26T15:59:41.323Z,16.27
2022-09-26T16:04:04.570Z,16.17
2022-09-26T16:08:26.064Z,16.11
2022-09-26T16:12:31.962Z,16.06
2022-09-26T16:16:35.013Z,16.03
2022-09-26T16:20:38.438Z,15.95
2022-09-26T16:24:42.810Z,15.89
2022-09-26T16:28:52.705Z,15.81
2022-09-26T16:33:19.542Z,15.76
2022-09-26T16:37:26.375Z,15.71
2022-09-26T16:46:13.843Z,15.60
2022-09-26T16:50:16.640Z,15.55
2022-09-26T16:54:22.701Z,15.56
2022-09-26T16:58:27.277Z,15.53
2022-09-26T17:02:35.360Z,15.49
2022-09-26T17:06:39.200Z,15.48
2022-09-26T17:10:44.928Z,15.48
2022-09-26T17:14:49.805Z,15.43
2022-09-26T17:18:51.592Z,15.37
2022-09-26T17:23:22.236Z,15.37
2022-09-26T17:27:39.941Z,15.35
2022-09-26T17:31:47.726Z,15.34
2022-09-26T17:35:49.813Z,15.31
2022-09-26T17:39:55.267Z,15.31
2022-09-26T17:44:00.320Z,15.31
2022-09-26T17:48:07.084Z,15.31
2022-09-26T17:52:34.761Z,15.30
2022-09-26T17:56:42.007Z,15.28
2022-09-26T18:00:47.462Z,15.30
2022-09-26T18:04:55.285Z,15.25
2022-09-26T18:09:04.227Z,15.25
2022-09-26T18:13:18.476Z,15.23
2022-09-26T18:17:23.121Z,15.23
2022-09-26T18:21:26.674Z,15.19
2022-09-26T18:25:33.236Z,15.15
2022-09-26T18:29:46.670Z,15.09
2022-09-26T18:33:51.654Z,14.98
2022-09-26T18:37:55.924Z,14.85
2022-09-26T18:42:06.291Z,14.78
2022-09-26T18:46:30.898Z,14.60
2022-09-26T18:50:37.868Z,14.48
2022-09-26T18:54:45.409Z,14.39
2022-09-26T18:58:55.329Z,14.30
2022-09-26T19:03:00.414Z,14.19
2022-09-26T19:07:11.252Z,14.16
2022-09-26T19:11:20.020Z,14.12
2022-09-26T19:15:22.369Z,14.06
2022-09-26T19:19:25.414Z,14.04
2022-09-26T19:23:34.904Z,13.98
2022-09-26T19:27:49.733Z,13.96
2022-09-26T19:31:53.059Z,13.91
2022-09-26T19:35:58.179Z,13.84
2022-09-26T19:40:01.347Z,13.79
2022-09-26T19:44:03.611Z,13.79
2022-09-26T19:48:21.067Z,13.75
2022-09-26T19:52:28.098Z,13.73
2022-09-26T19:56:35.591Z,13.72
2022-09-26T20:00:45.797Z,13.69
2022-09-26T20:04:48.232Z,13.59
2022-09-26T20:09:01.620Z,13.54
2022-09-26T20:13:09.554Z,13.50
2022-09-26T20:17:25.970Z,13.47
2022-09-26T20:21:33.927Z,13.43
2022-09-26T20:25:46.622Z,13.39
2022-09-26T20:30:09.996Z,13.36
2022-09-26T20:34:12.326Z,13.28
2022-09-26T20:38:27.646Z,13.19
2022-09-26T20:42:37.531Z,13.16
2022-09-26T20:46:50.028Z,13.09
2022-09-26T20:50:53.150Z,13.06
2022-09-26T20:55:01.784Z,13.04
2022-09-26T20:59:14.442Z,12.96
2022-09-26T21:03:21.493Z,12.94
2022-09-26T21:07:35.343Z,12.95
2022-09-26T21:11:37.686Z,12.94
2022-09-26T21:15:45.129Z,12.96
2022-09-26T21:19:57.343Z,12.94
2022-09-26T21:24:33.716Z,12.91
2022-09-26T21:28:35.553Z,12.92
2022-09-26T21:32:37.785Z,12.89
2022-09-26T21:36:43.683Z,12.87
2022-09-26T21:40:49.356Z,12.88
2022-09-26T21:45:00.279Z,12.84
2022-09-26T21:49:04.140Z,12.84
2022-09-26T21:53:17.990Z,12.80
2022-09-26T21:57:32.393Z,12.76
2022-09-26T22:01:36.316Z,12.74
2022-09-26T22:05:41.934Z,12.73
2022-09-26T22:09:46.486Z,12.73
2022-09-26T22:13:48.774Z,12.67
2022-09-26T22:17:54.091Z,12.63
2022-09-26T22:22:00.877Z,12.59
2022-09-26T22:26:05.575Z,12.54
2022-09-26T22:30:10.610Z,12.52
2022-09-26T22:34:18.468Z,12.51
2022-09-26T22:38:23.973Z,12.52
2022-09-26T22:42:28.813Z,12.51
2022-09-26T22:46:34.568Z,12.51
2022-09-26T22:50:38.050Z,12.49
2022-09-26T22:54:40.413Z,12.41
2022-09-26T22:58:48.041Z,12.41
2022-09-26T23:02:50.460Z,12.41
2022-09-26T23:06:55.081Z,12.36
2022-09-26T23:10:57.458Z,12.33
2022-09-26T23:14:59.768Z,12.31
2022-09-26T23:19:02.015Z,12.25
2022-09-26T23:23:13.902Z,12.21
2022-09-26T23:27:22.272Z,12.23
2022-09-26T23:31:30.901Z,12.22
2022-09-26T23:35:33.344Z,12.19
2022-09-26T23:39:39.017Z,12.23
2022-09-26T23:43:49.876Z,12.16
2022-09-26T23:47:52.329Z,12.15
2022-09-26T23:51:54.792Z,12.11
2022-09-26T23:56:05.713Z,12.08
